Time;durP1;ratioP1;P1;durP2;ratioP2;P2;SDS_P1;SDS_P2;PMS_P1;PMS_P2;Temp;Humidity;BMP_temperature;BMP_pressure;BME280_temperature;BME280_humidity;BME280_pressure;Samples;Min_cycle;Max_cycle;Signal;HPM_P1;HPM_P2
2022/09/23 00:00:59;;;;;;;8.70;6.10;;;11.90;99.90;;;;;;5081941;28;20304;-86
2022/09/23 00:03:48;;;;;;;7.82;5.78;;;11.90;99.90;;;;;;5079186;28;20219;-86
2022/09/23 00:06:37;;;;;;;7.90;6.00;;;11.90;99.90;;;;;;5082887;28;20833;-85
2022/09/23 00:09:26;;;;;;;10.30;7.07;;;11.80;99.90;;;;;;5082030;28;20692;-86
2022/09/23 00:12:15;;;;;;;7.60;6.57;;;11.90;99.90;;;;;;5080944;28;20235;-86
2022/09/23 00:15:04;;;;;;;10.13;6.93;;;11.90;99.90;;;;;;5083048;28;20219;-86
2022/09/23 00:17:54;;;;;;;9.43;6.82;;;11.80;99.90;;;;;;5079432;28;20220;-85
2022/09/23 00:20:42;;;;;;;8.27;6.60;;;11.70;99.90;;;;;;5080762;28;20590;-86
2022/09/23 00:23:31;;;;;;;8.95;6.63;;;11.80;99.90;;;;;;5082089;28;20994;-86
2022/09/23 00:26:22;;;;;;;10.85;7.32;;;11.80;99.90;;;;;;5085831;28;20215;-86
2022/09/23 00:29:11;;;;;;;10.77;7.80;;;11.70;99.90;;;;;;5081714;28;20288;-86
2022/09/23 00:31:59;;;;;;;12.38;8.80;;;11.70;99.90;;;;;;5064912;28;20254;-85
2022/09/23 00:34:48;;;;;;;10.82;8.65;;;11.70;99.90;;;;;;5076493;28;20677;-85
2022/09/23 00:37:37;;;;;;;11.40;8.40;;;11.70;99.90;;;;;;5081095;28;20223;-88
2022/09/23 00:40:25;;;;;;;10.82;9.07;;;11.70;99.90;;;;;;5080175;28;20227;-85
2022/09/23 00:43:16;;;;;;;11.15;9.05;;;11.70;99.90;;;;;;5084235;28;20287;-86
2022/09/23 00:46:06;;;;;;;13.02;9.55;;;11.70;99.90;;;;;;5069477;28;20265;-86
2022/09/23 00:48:59;;;;;;;11.93;9.43;;;11.70;99.90;;;;;;5080561;28;20223;-87
2022/09/23 00:51:54;;;;;;;13.32;9.10;;;11.70;99.90;;;;;;5067890;28;20613;-86
2022/09/23 00:54:42;;;;;;;12.23;9.52;;;11.70;99.90;;;;;;5083139;28;20215;-86
2022/09/23 00:57:32;;;;;;;11.35;9.25;;;11.60;99.90;;;;;;5087163;28;20400;-87
2022/09/23 01:00:23;;;;;;;9.88;8.27;;;11.60;99.90;;;;;;5067461;28;20632;-86
2022/09/23 01:03:11;;;;;;;11.65;8.77;;;11.60;99.90;;;;;;5083662;28;20224;-87
2022/09/23 01:06:00;;;;;;;11.93;8.18;;;11.50;99.90;;;;;;5083048;28;20235;-87
2022/09/23 01:08:49;;;;;;;10.25;7.30;;;11.50;99.90;;;;;;5084227;28;20222;-85
2022/09/23 01:11:45;;;;;;;10.10;8.30;;;11.50;99.90;;;;;;5085320;28;20316;-89
2022/09/23 01:14:48;;;;;;;12.27;8.75;;;11.70;99.90;;;;;;5085726;28;20310;-88
2022/09/23 01:17:44;;;;;;;12.48;8.23;;;11.70;99.90;;;;;;5086695;28;20336;-87
2022/09/23 01:20:49;;;;;;;11.00;8.05;;;11.70;99.90;;;;;;5086160;28;20223;-88
2022/09/23 01:24:20;;;;;;;12.20;9.40;;;11.80;99.90;;;;;;5080920;28;20295;-84
2022/09/23 01:27:16;;;;;;;12.23;9.10;;;11.70;99.90;;;;;;5078525;28;20245;-86
2022/09/23 01:30:16;;;;;;;11.90;8.88;;;11.70;99.90;;;;;;5063956;28;20260;-86
2022/09/23 01:33:13;;;;;;;11.82;8.93;;;11.60;99.90;;;;;;5079617;28;20326;-85
2022/09/23 01:36:18;;;;;;;11.95;9.73;;;11.60;99.90;;;;;;5081868;28;20216;-86
2022/09/23 01:39:12;;;;;;;12.40;9.75;;;11.50;99.90;;;;;;5079153;28;20329;-86
2022/09/23 01:42:05;;;;;;;12.25;9.50;;;11.60;99.90;;;;;;5077677;28;20250;-85
2022/09/23 01:44:59;;;;;;;12.98;10.05;;;11.50;99.90;;;;;;5079747;28;20227;-85
2022/09/23 01:47:51;;;;;;;11.73;10.20;;;11.60;99.90;;;;;;5079781;28;20310;-86
2022/09/23 01:50:56;;;;;;;14.43;11.32;;;11.60;99.90;;;;;;5069298;28;20216;-84
2022/09/23 01:53:49;;;;;;;16.08;12.10;;;11.60;99.90;;;;;;5067016;28;20215;-85
2022/09/23 01:56:42;;;;;;;13.23;11.38;;;11.50;99.90;;;;;;5053994;28;20236;-86
2022/09/23 01:59:35;;;;;;;11.98;10.75;;;11.50;99.90;;;;;;5064424;28;20260;-86
2022/09/23 02:02:29;;;;;;;14.75;10.52;;;11.60;99.90;;;;;;5061393;28;20314;-87
2022/09/23 02:05:23;;;;;;;15.75;10.45;;;11.70;99.90;;;;;;5065619;28;20679;-87
2022/09/23 02:08:18;;;;;;;12.85;9.80;;;11.60;99.90;;;;;;5066965;28;20273;-87
2022/09/23 02:11:08;;;;;;;11.65;8.52;;;11.60;99.90;;;;;;5063102;28;20227;-87
2022/09/23 02:14:00;;;;;;;11.98;8.40;;;11.60;99.90;;;;;;5062703;28;20336;-91
2022/09/23 02:16:51;;;;;;;11.70;9.07;;;11.60;99.90;;;;;;5069959;28;20374;-88
2022/09/23 02:19:46;;;;;;;10.05;7.93;;;11.60;99.90;;;;;;5069394;28;20259;-86
2022/09/23 02:22:40;;;;;;;11.43;8.52;;;11.70;99.90;;;;;;5059734;28;20229;-88
2022/09/23 02:25:37;;;;;;;8.43;7.53;;;11.60;99.90;;;;;;5070509;28;20575;-88
2022/09/23 02:28:32;;;;;;;13.23;8.60;;;11.60;99.90;;;;;;5065577;28;20351;-88
2022/09/23 02:31:30;;;;;;;12.18;7.82;;;11.50;99.90;;;;;;5065789;28;20307;-87
2022/09/23 02:34:26;;;;;;;10.30;7.18;;;11.50;99.90;;;;;;5067639;28;20223;-87
2022/09/23 02:37:25;;;;;;;9.07;6.55;;;11.50;99.90;;;;;;5064305;28;20238;-88
2022/09/23 02:40:22;;;;;;;8.75;6.75;;;11.40;99.90;;;;;;5067442;28;20301;-88
2022/09/23 02:43:18;;;;;;;9.57;7.03;;;11.40;99.90;;;;;;5063723;28;20810;-86
2022/09/23 02:46:07;;;;;;;8.68;6.13;;;11.40;99.90;;;;;;5068538;28;20231;-87
2022/09/23 02:49:00;;;;;;;7.93;6.00;;;11.30;99.90;;;;;;5069941;28;20220;-87
2022/09/23 02:51:49;;;;;;;8.80;5.97;;;11.20;99.90;;;;;;5081201;28;20223;-87
2022/09/23 02:54:38;;;;;;;7.65;6.10;;;11.20;99.90;;;;;;5081560;28;20326;-86
2022/09/23 02:57:27;;;;;;;9.85;6.35;;;11.20;99.90;;;;;;5073094;28;20300;-88
2022/09/23 03:00:17;;;;;;;8.15;6.75;;;11.20;99.90;;;;;;5077458;28;20224;-87
2022/09/23 03:03:21;;;;;;;7.50;6.25;;;11.10;99.90;;;;;;5080765;28;20238;-90
2022/09/23 03:06:20;;;;;;;9.45;6.45;;;11.10;99.90;;;;;;5077246;28;20231;-88
2022/09/23 03:09:13;;;;;;;9.90;6.10;;;11.20;99.90;;;;;;5080340;28;20310;-87
2022/09/23 03:12:12;;;;;;;8.25;5.88;;;11.30;99.90;;;;;;5083192;28;20219;-87
2022/09/23 03:15:11;;;;;;;10.27;6.65;;;11.30;99.90;;;;;;5082881;28;20332;-86
2022/09/23 03:18:10;;;;;;;10.15;7.18;;;11.30;99.90;;;;;;5062343;28;20256;-87
2022/09/23 03:21:03;;;;;;;10.55;7.35;;;11.40;99.90;;;;;;5080159;28;20380;-89
2022/09/23 03:23:53;;;;;;;10.07;6.72;;;11.40;99.90;;;;;;5069136;28;20224;-89
2022/09/23 03:26:46;;;;;;;8.85;6.57;;;11.30;99.90;;;;;;5068691;28;20227;-88
2022/09/23 03:29:36;;;;;;;9.05;6.78;;;11.40;99.90;;;;;;5081771;28;20234;-88
2022/09/23 03:32:27;;;;;;;7.68;6.72;;;11.30;99.90;;;;;;5064990;28;20222;-86
2022/09/23 03:35:18;;;;;;;11.07;6.85;;;11.40;99.90;;;;;;5063669;28;20249;-87
2022/09/23 03:38:16;;;;;;;9.18;6.70;;;11.40;99.90;;;;;;5076716;28;20219;-86
2022/09/23 03:41:08;;;;;;;11.07;7.22;;;11.30;99.90;;;;;;5078775;28;20230;-86
2022/09/23 03:43:58;;;;;;;8.73;6.70;;;11.20;99.90;;;;;;5074870;28;20284;-86
2022/09/23 03:46:49;;;;;;;12.00;6.70;;;11.30;99.90;;;;;;5076453;28;20928;-87
2022/09/23 03:49:39;;;;;;;13.10;6.35;;;11.20;99.90;;;;;;5077024;28;20764;-86
2022/09/23 03:52:29;;;;;;;8.65;6.68;;;11.20;99.90;;;;;;5076357;28;20273;-86
2022/09/23 03:55:18;;;;;;;8.15;6.35;;;11.20;99.90;;;;;;5077215;28;20335;-87
2022/09/23 03:58:07;;;;;;;8.30;6.03;;;11.10;99.90;;;;;;5076150;28;20232;-86
2022/09/23 04:00:56;;;;;;;9.02;6.30;;;11.10;99.90;;;;;;5076832;28;20231;-86
2022/09/23 04:03:45;;;;;;;10.38;6.13;;;11.20;99.90;;;;;;5077118;28;20251;-85
2022/09/23 04:06:33;;;;;;;11.48;6.85;;;11.10;99.90;;;;;;5085283;28;20255;-87
2022/09/23 04:09:23;;;;;;;10.82;6.28;;;11.10;99.90;;;;;;5070106;28;20884;-87
2022/09/23 04:12:14;;;;;;;9.07;6.25;;;11.00;99.90;;;;;;5081248;28;20215;-85
2022/09/23 04:15:03;;;;;;;8.25;6.32;;;11.00;99.90;;;;;;5081099;28;20305;-86
2022/09/23 04:17:51;;;;;;;10.02;6.43;;;11.00;99.90;;;;;;5065622;28;20212;-85
2022/09/23 04:20:40;;;;;;;11.18;7.00;;;10.90;99.90;;;;;;5081190;28;20215;-85
2022/09/23 04:23:29;;;;;;;11.40;6.93;;;10.90;99.90;;;;;;5066349;28;20223;-87
2022/09/23 04:26:19;;;;;;;12.77;6.80;;;10.80;99.90;;;;;;5081602;28;20224;-87
2022/09/23 04:29:08;;;;;;;11.27;6.40;;;10.90;99.90;;;;;;5082697;28;20318;-87
2022/09/23 04:31:57;;;;;;;15.20;7.28;;;10.80;99.90;;;;;;5083363;28;20223;-87
2022/09/23 04:34:45;;;;;;;9.73;6.55;;;10.90;99.90;;;;;;5082423;28;20242;-86
2022/09/23 04:37:34;;;;;;;18.77;7.25;;;10.80;99.90;;;;;;5066698;28;20349;-87
2022/09/23 04:40:22;;;;;;;15.85;7.43;;;10.70;99.90;;;;;;5067081;28;20224;-86
2022/09/23 04:43:13;;;;;;;12.63;6.95;;;10.80;99.90;;;;;;5066622;28;20230;-86
2022/09/23 04:46:04;;;;;;;13.18;6.80;;;10.80;99.90;;;;;;5082065;28;20298;-87
2022/09/23 04:48:52;;;;;;;17.45;6.90;;;10.80;99.90;;;;;;5080929;28;20221;-86
2022/09/23 04:51:42;;;;;;;14.68;7.30;;;10.80;99.90;;;;;;5078811;28;20228;-86
2022/09/23 04:54:31;;;;;;;14.13;6.85;;;10.80;99.90;;;;;;5080093;28;20227;-86
2022/09/23 04:57:20;;;;;;;14.60;7.50;;;10.80;99.90;;;;;;5078081;28;20658;-87
2022/09/23 05:00:14;;;;;;;19.63;7.70;;;10.90;99.90;;;;;;5065876;28;20801;-86
2022/09/23 05:03:02;;;;;;;18.60;7.15;;;10.90;99.90;;;;;;5079973;28;20250;-86
2022/09/23 05:05:52;;;;;;;19.08;7.90;;;10.90;99.90;;;;;;5080698;28;20251;-86
2022/09/23 05:08:41;;;;;;;15.15;7.13;;;10.80;99.90;;;;;;5081371;28;20689;-86
2022/09/23 05:11:31;;;;;;;18.02;7.03;;;10.80;99.90;;;;;;5079345;28;20277;-85
2022/09/23 05:14:20;;;;;;;15.07;7.63;;;10.80;99.90;;;;;;5081147;28;20258;-85
2022/09/23 05:17:10;;;;;;;13.40;7.15;;;10.90;99.90;;;;;;5082011;28;20302;-85
2022/09/23 05:19:59;;;;;;;14.88;8.88;;;11.00;99.90;;;;;;5081836;28;20688;-85
2022/09/23 05:22:48;;;;;;;17.52;8.05;;;11.00;99.90;;;;;;5071570;28;20224;-85
2022/09/23 05:25:36;;;;;;;13.38;8.20;;;11.00;99.90;;;;;;5079731;28;20219;-85
2022/09/23 05:28:26;;;;;;;15.20;8.45;;;11.00;99.90;;;;;;5079769;28;20900;-86
2022/09/23 05:31:17;;;;;;;12.50;7.60;;;11.10;99.90;;;;;;5067105;28;20234;-86
2022/09/23 05:34:09;;;;;;;14.55;8.52;;;11.00;99.90;;;;;;5079954;28;20614;-86
2022/09/23 05:36:58;;;;;;;12.80;8.57;;;10.90;99.90;;;;;;5081835;28;20211;-85
2022/09/23 05:39:46;;;;;;;11.63;7.47;;;10.90;99.90;;;;;;5086184;28;20219;-88
2022/09/23 05:42:35;;;;;;;12.13;8.30;;;11.00;99.90;;;;;;5078164;28;20257;-87
2022/09/23 05:45:23;;;;;;;14.35;7.63;;;11.00;99.90;;;;;;5078936;28;20585;-86
2022/09/23 05:48:14;;;;;;;10.88;7.93;;;11.10;99.90;;;;;;5064952;28;20277;-86
2022/09/23 05:51:06;;;;;;;11.75;8.50;;;11.10;99.90;;;;;;5079068;28;20238;-86
2022/09/23 05:53:57;;;;;;;13.10;7.40;;;11.00;99.90;;;;;;5082439;28;20215;-88
2022/09/23 05:56:45;;;;;;;11.43;7.55;;;11.00;99.90;;;;;;5085354;28;20227;-85
2022/09/23 05:59:33;;;;;;;11.15;7.95;;;11.20;99.90;;;;;;5069393;28;20346;-87
2022/09/23 06:02:22;;;;;;;14.07;8.98;;;11.30;99.90;;;;;;5062043;28;20805;-88
2022/09/23 06:05:12;;;;;;;11.38;8.45;;;11.50;99.90;;;;;;5064174;28;20228;-88
2022/09/23 06:08:02;;;;;;;12.57;8.50;;;11.50;99.90;;;;;;5058985;28;20258;-87
2022/09/23 06:10:50;;;;;;;12.90;8.20;;;11.50;99.90;;;;;;5062114;28;20722;-84
2022/09/23 06:13:42;;;;;;;14.85;9.20;;;11.50;99.90;;;;;;5056388;28;20647;-87
2022/09/23 06:16:32;;;;;;;14.40;8.43;;;11.50;99.90;;;;;;5063858;28;20236;-87
2022/09/23 06:19:21;;;;;;;16.65;9.18;;;11.40;99.90;;;;;;5061285;28;20227;-91
2022/09/23 06:22:09;;;;;;;11.13;7.88;;;11.50;99.90;;;;;;5065637;28;20216;-87
2022/09/23 06:24:59;;;;;;;15.60;8.73;;;11.60;99.90;;;;;;5067355;28;20232;-91
2022/09/23 06:27:54;;;;;;;11.10;7.80;;;11.70;99.90;;;;;;5059483;28;20247;-89
2022/09/23 06:30:42;;;;;;;15.00;8.00;;;11.90;99.90;;;;;;5077018;28;20223;-84
2022/09/23 06:33:31;;;;;;;12.88;8.13;;;11.90;99.90;;;;;;5062158;28;20232;-85
2022/09/23 06:36:24;;;;;;;14.23;8.18;;;11.90;99.90;;;;;;5061752;28;20242;-87
2022/09/23 06:39:30;;;;;;;15.82;7.78;;;12.00;99.90;;;;;;5068676;28;20212;-96
2022/09/23 06:42:20;;;;;;;11.68;7.70;;;11.90;99.90;;;;;;5079948;28;20243;-90
2022/09/23 06:45:11;;;;;;;12.45;7.00;;;12.00;99.90;;;;;;5055355;28;20225;-91
2022/09/23 06:48:03;;;;;;;14.52;6.95;;;12.10;99.90;;;;;;5066308;28;20318;-93
2022/09/23 06:50:52;;;;;;;13.98;7.45;;;12.00;99.90;;;;;;5078516;28;21014;-91
2022/09/23 06:53:41;;;;;;;14.27;7.20;;;12.10;99.90;;;;;;5070578;28;20808;-90
2022/09/23 06:56:29;;;;;;;11.02;7.00;;;12.00;99.90;;;;;;5083612;28;20220;-93
2022/09/23 06:59:26;;;;;;;14.05;7.03;;;11.90;99.90;;;;;;5076468;28;20235;-93
2022/09/23 07:02:14;;;;;;;16.80;7.50;;;11.90;99.90;;;;;;5082122;28;20223;-93
2022/09/23 07:05:03;;;;;;;15.30;6.57;;;12.10;99.90;;;;;;5080235;28;20230;-93
2022/09/23 07:07:52;;;;;;;13.52;6.80;;;12.10;99.90;;;;;;5080357;28;20249;-93
2022/09/23 07:10:41;;;;;;;13.93;6.30;;;12.20;99.90;;;;;;5070823;28;20808;-90
2022/09/23 07:13:31;;;;;;;12.70;6.70;;;12.20;99.90;;;;;;5083883;28;20590;-86
2022/09/23 07:16:21;;;;;;;11.30;5.57;;;12.30;99.90;;;;;;5083377;28;20218;-89
2022/09/23 07:19:11;;;;;;;9.65;6.82;;;12.40;99.90;;;;;;5064772;28;20243;-89
2022/09/23 07:21:59;;;;;;;10.05;5.88;;;12.40;99.90;;;;;;5076079;28;20839;-90
2022/09/23 07:24:48;;;;;;;9.88;6.60;;;12.60;99.90;;;;;;5085788;28;20226;-90
2022/09/23 07:27:36;;;;;;;13.65;5.90;;;12.60;99.90;;;;;;5076061;28;20230;-90
2022/09/23 07:30:25;;;;;;;10.07;6.25;;;12.60;99.90;;;;;;5084160;28;20303;-89
2022/09/23 07:33:15;;;;;;;14.63;7.30;;;12.70;99.90;;;;;;5080313;28;20997;-89
2022/09/23 07:36:19;;;;;;;10.57;6.45;;;12.70;99.90;;;;;;5084925;28;20216;-89
2022/09/23 07:39:09;;;;;;;26.65;14.43;;;12.80;99.90;;;;;;5071799;28;20229;-87
2022/09/23 07:41:58;;;;;;;8.00;6.18;;;13.00;99.90;;;;;;5062116;28;20223;-91
2022/09/23 07:44:47;;;;;;;8.93;5.90;;;13.30;99.90;;;;;;5076903;28;20220;-87
2022/09/23 07:47:38;;;;;;;12.43;6.22;;;13.60;99.90;;;;;;5060362;28;20311;-90
2022/09/23 07:50:30;;;;;;;9.40;6.13;;;14.00;99.90;;;;;;5083399;28;20311;-88
2022/09/23 07:53:19;;;;;;;8.65;6.20;;;14.40;99.90;;;;;;5087835;28;20219;-88
2022/09/23 07:56:08;;;;;;;6.68;5.47;;;14.80;99.90;;;;;;5095215;28;20223;-87
2022/09/23 07:59:00;;;;;;;7.07;5.53;;;15.10;99.90;;;;;;5090668;28;20638;-90
2022/09/23 08:01:52;;;;;;;9.77;5.75;;;15.40;99.90;;;;;;5079565;28;20238;-90
2022/09/23 08:04:41;;;;;;;7.68;5.55;;;15.70;99.90;;;;;;5090555;28;20300;-93
2022/09/23 08:07:33;;;;;;;8.27;5.68;;;16.10;99.90;;;;;;5106130;28;20590;-93
2022/09/23 08:10:21;;;;;;;10.98;5.50;;;16.30;99.90;;;;;;5087917;28;20219;-94
2022/09/23 08:13:10;;;;;;;11.73;5.65;;;16.70;99.90;;;;;;5076626;28;20226;-96
2022/09/23 08:15:59;;;;;;;11.57;6.38;;;16.90;99.90;;;;;;5074986;28;20230;-95
2022/09/23 08:18:47;;;;;;;8.27;5.78;;;17.20;99.90;;;;;;5076917;28;20211;-95
2022/09/23 08:21:38;;;;;;;7.15;5.03;;;17.40;99.90;;;;;;5088289;28;20535;-94
2022/09/23 08:24:31;;;;;;;10.32;4.63;;;17.60;99.90;;;;;;5092904;28;20221;-96
2022/09/23 08:27:19;;;;;;;5.85;3.72;;;17.70;99.90;;;;;;5072863;28;20211;-96
2022/09/23 08:30:09;;;;;;;4.85;3.30;;;18.00;99.90;;;;;;5077978;28;20472;-87
2022/09/23 08:32:58;;;;;;;3.70;3.22;;;18.20;99.90;;;;;;5064901;28;20341;-83
2022/09/23 08:35:46;;;;;;;8.23;3.40;;;18.40;99.90;;;;;;5080921;28;20230;-83
2022/09/23 08:38:35;;;;;;;3.83;3.30;;;18.90;99.90;;;;;;5052143;28;22256;-85
2022/09/23 08:41:34;;;;;;;5.50;3.63;;;19.00;99.90;;;;;;5065320;28;20216;-84
2022/09/23 08:44:27;;;;;;;5.90;3.70;;;19.20;99.90;;;;;;5073116;28;20227;-85
2022/09/23 08:47:21;;;;;;;4.82;3.08;;;19.50;99.90;;;;;;5076984;28;20448;-85
2022/09/23 08:50:17;;;;;;;4.05;3.25;;;19.90;99.90;;;;;;5079076;28;20310;-83
2022/09/23 08:53:13;;;;;;;8.23;3.72;;;20.00;99.90;;;;;;5080646;28;20227;-83
2022/09/23 08:56:07;;;;;;;4.18;2.95;;;20.20;99.90;;;;;;5075990;28;20718;-83
2022/09/23 08:59:04;;;;;;;5.57;3.13;;;20.10;99.90;;;;;;5072463;28;20238;-83
2022/09/23 09:01:55;;;;;;;4.35;3.20;;;19.90;99.90;;;;;;5065837;28;20327;-82
2022/09/23 09:04:47;;;;;;;5.97;3.35;;;19.50;99.90;;;;;;5069056;28;20739;-83
2022/09/23 09:07:39;;;;;;;4.45;3.50;;;18.70;99.90;;;;;;5062045;28;20235;-83
2022/09/23 09:10:35;;;;;;;4.22;3.72;;;18.00;99.90;;;;;;5071432;28;20223;-83
2022/09/23 09:13:30;;;;;;;5.30;3.70;;;17.70;99.90;;;;;;5065476;28;20883;-82
2022/09/23 09:16:38;;;;;;;4.53;4.00;;;17.30;99.90;;;;;;5062675;28;20276;-81
2022/09/23 09:19:58;;;;;;;6.38;4.47;;;17.10;99.90;;;;;;5081315;28;20583;-81
2022/09/23 09:22:53;;;;;;;8.20;4.22;;;17.20;99.90;;;;;;5076108;28;20723;-81
2022/09/23 09:25:45;;;;;;;6.40;3.92;;;17.20;99.90;;;;;;5066996;28;20264;-81
2022/09/23 09:28:38;;;;;;;4.40;3.53;;;17.00;99.90;;;;;;5061641;28;20316;-82
2022/09/23 09:31:32;;;;;;;4.57;3.38;;;17.00;99.90;;;;;;5062235;28;20299;-83
2022/09/23 09:34:28;;;;;;;5.03;3.97;;;16.60;99.90;;;;;;5076879;28;20318;-85
2022/09/23 09:37:25;;;;;;;4.70;4.20;;;16.40;99.90;;;;;;5079674;28;20357;-85
2022/09/23 09:40:15;;;;;;;5.28;3.90;;;16.30;99.90;;;;;;5084084;28;20227;-92
2022/09/23 09:43:04;;;;;;;7.70;3.90;;;16.40;99.90;;;;;;5074330;28;20273;-87
2022/09/23 09:46:07;;;;;;;5.25;3.95;;;16.20;99.90;;;;;;5077877;28;20315;-86
2022/09/23 09:49:02;;;;;;;9.20;4.15;;;16.10;99.90;;;;;;5076266;28;20303;-90
2022/09/23 09:52:12;;;;;;;2.13;1.90;;;16.10;99.90;;;;;;5086392;28;20580;-91
2022/09/23 09:55:24;;;;;;;2.63;1.73;;;15.90;99.90;;;;;;5079564;28;21182;-91
2022/09/23 09:58:15;;;;;;;3.30;1.60;;;16.10;99.90;;;;;;5086715;28;20246;-91
2022/09/23 10:01:05;;;;;;;4.43;2.60;;;16.20;99.90;;;;;;5080949;28;20627;-88
2022/09/23 10:03:55;;;;;;;5.40;3.60;;;16.20;99.90;;;;;;5059455;28;20708;-85
2022/09/23 10:07:05;;;;;;;2.72;2.15;;;16.00;99.90;;;;;;5074588;28;20227;-89
2022/09/23 10:09:53;;;;;;;4.13;1.73;;;16.00;99.90;;;;;;5083631;28;20250;-89
2022/09/23 10:12:49;;;;;;;2.08;1.45;;;16.00;99.90;;;;;;5070578;28;20223;-86
2022/09/23 10:15:43;;;;;;;2.45;1.30;;;16.20;99.90;;;;;;5075236;28;20292;-84
2022/09/23 10:18:37;;;;;;;2.13;1.17;;;16.10;99.90;;;;;;5079271;28;20223;-86
2022/09/23 10:21:32;;;;;;;3.38;1.77;;;16.10;99.90;;;;;;5062907;28;20243;-87
2022/09/23 10:24:26;;;;;;;4.85;2.60;;;16.20;99.90;;;;;;5068489;28;20225;-85
2022/09/23 10:27:15;;;;;;;1.95;1.30;;;16.00;99.90;;;;;;5078754;28;20349;-88
2022/09/23 10:30:20;;;;;;;1.95;1.20;;;16.10;99.90;;;;;;5079815;28;20297;-86
2022/09/23 10:33:27;;;;;;;2.40;1.30;;;16.10;99.90;;;;;;5082639;28;20265;-87
2022/09/23 10:36:17;;;;;;;1.70;1.40;;;16.20;99.90;;;;;;5064021;28;20257;-86
2022/09/23 10:48:53;;;;;;;1.98;1.30;;;16.10;99.90;;;;;;5078200;28;20722;-90
2022/09/23 10:51:50;;;;;;;4.72;2.25;;;15.90;99.90;;;;;;5060981;28;20228;-87
2022/09/23 10:54:52;;;;;;;3.55;1.30;;;15.90;99.90;;;;;;5063193;28;20319;-83
2022/09/23 10:57:58;;;;;;;2.72;1.38;;;16.00;99.90;;;;;;5072319;28;20547;-83
2022/09/23 11:01:00;;;;;;;2.00;1.30;;;16.00;99.90;;;;;;5065554;28;20305;-83
2022/09/23 11:04:28;;;;;;;3.20;1.20;;;16.10;99.90;;;;;;5062945;28;20253;-82
2022/09/23 11:07:25;;;;;;;2.13;1.27;;;15.80;99.90;;;;;;5056775;28;20231;-85
2022/09/23 11:10:31;;;;;;;2.63;1.30;;;15.80;99.90;;;;;;5077442;28;20234;-87
2022/09/23 11:13:54;;;;;;;2.42;1.20;;;15.90;99.90;;;;;;5076706;28;20292;-84
2022/09/23 11:16:54;;;;;;;3.80;1.50;;;16.00;99.90;;;;;;5076363;28;20374;-84
2022/09/23 11:20:02;;;;;;;4.35;1.23;;;16.30;99.90;;;;;;5079888;28;20215;-84
2022/09/23 11:23:17;;;;;;;3.38;1.35;;;16.50;99.90;;;;;;5082367;28;20230;-86
2022/09/23 11:26:18;;;;;;;3.63;1.20;;;16.50;99.90;;;;;;5067688;28;20243;-87
2022/09/23 11:29:35;;;;;;;2.45;1.27;;;16.30;99.90;;;;;;5085014;28;20375;-88
2022/09/23 11:32:50;;;;;;;2.40;1.23;;;16.40;99.90;;;;;;5086154;28;20219;-87
2022/09/23 11:35:46;;;;;;;2.00;1.08;;;16.30;99.90;;;;;;5069410;28;20241;-85
2022/09/23 11:38:39;;;;;;;2.28;1.40;;;16.20;99.90;;;;;;5079111;28;20220;-87
2022/09/23 11:41:31;;;;;;;2.10;1.30;;;16.30;99.90;;;;;;5084208;28;20227;-85
2022/09/23 11:44:28;;;;;;;3.85;1.35;;;16.10;99.90;;;;;;5067408;28;20230;-85
2022/09/23 11:47:21;;;;;;;2.78;1.42;;;16.30;99.90;;;;;;5079712;28;20717;-87
2022/09/23 11:50:18;;;;;;;2.35;1.40;;;16.40;99.90;;;;;;5073892;28;21319;-87
2022/09/23 11:53:12;;;;;;;1.83;1.50;;;16.30;99.90;;;;;;5075218;28;20262;-86
2022/09/23 11:56:05;;;;;;;1.75;1.30;;;16.50;99.90;;;;;;5073778;28;20361;-86
2022/09/23 11:59:15;;;;;;;3.55;1.83;;;16.60;99.90;;;;;;5079463;28;20227;-87
2022/09/23 12:02:16;;;;;;;1.98;1.20;;;16.70;99.90;;;;;;5078928;28;20300;-83
2022/09/23 12:05:15;;;;;;;1.73;1.33;;;16.60;99.90;;;;;;5075127;28;20219;-85
2022/09/23 12:08:10;;;;;;;1.73;1.15;;;16.50;99.30;;;;;;5073823;28;21109;-84
2022/09/23 12:11:06;;;;;;;2.83;1.70;;;16.30;99.90;;;;;;5075852;28;20270;-83
2022/09/23 12:14:07;;;;;;;5.20;1.80;;;16.20;99.90;;;;;;5071397;28;20227;-85
2022/09/23 12:17:13;;;;;;;2.88;1.30;;;16.00;99.70;;;;;;5074872;28;20254;-85
2022/09/23 12:20:28;;;;;;;1.65;1.23;;;16.10;99.90;;;;;;5075855;28;20385;-82
2022/09/23 12:23:34;;;;;;;2.20;1.30;;;16.10;99.90;;;;;;5077447;28;20235;-83
2022/09/23 12:26:25;;;;;;;1.73;1.38;;;16.10;99.90;;;;;;5059028;28;20272;-83
2022/09/23 12:29:14;;;;;;;1.65;1.40;;;16.10;99.90;;;;;;5075353;28;20239;-83
2022/09/23 12:32:08;;;;;;;3.05;1.80;;;16.30;99.90;;;;;;5061866;28;20904;-83
2022/09/23 12:35:00;;;;;;;2.58;1.60;;;16.30;99.90;;;;;;5077161;28;20688;-84
2022/09/23 12:37:49;;;;;;;2.90;1.25;;;16.20;99.90;;;;;;5079559;28;20287;-83
2022/09/23 12:40:42;;;;;;;4.15;1.50;;;16.20;99.90;;;;;;5078305;28;20326;-82
2022/09/23 12:43:33;;;;;;;2.70;1.40;;;16.20;99.90;;;;;;5077672;28;20289;-83
2022/09/23 12:46:24;;;;;;;1.40;1.20;;;16.10;99.90;;;;;;5078521;28;20220;-83
2022/09/23 12:49:24;;;;;;;2.95;1.45;;;16.10;99.90;;;;;;5074184;28;20231;-83
2022/09/23 12:52:25;;;;;;;3.38;1.40;;;16.10;99.90;;;;;;5073831;28;20317;-83
2022/09/23 12:55:45;;;;;;;4.05;1.33;;;16.10;99.90;;;;;;5075095;28;20226;-83
2022/09/23 12:58:59;;;;;;;3.15;1.33;;;16.10;99.90;;;;;;5061218;28;20228;-84
2022/09/23 13:01:48;;;;;;;4.32;1.17;;;16.30;99.90;;;;;;5078759;28;20627;-86
2022/09/23 13:08:02;;;;;;;3.33;1.40;;;16.50;99.90;;;;;;5080310;28;20248;-88
2022/09/23 13:10:54;;;;;;;2.13;1.30;;;16.60;99.90;;;;;;5076670;28;20227;-85
2022/09/23 13:13:45;;;;;;;1.80;1.30;;;16.70;99.90;;;;;;5076951;28;20227;-86
2022/09/23 13:16:35;;;;;;;1.70;1.23;;;16.60;99.30;;;;;;5076126;28;20284;-86
2022/09/23 13:19:44;;;;;;;2.90;1.60;;;16.50;99.90;;;;;;5076155;28;21108;-87
2022/09/23 13:23:05;;;;;;;1.90;1.60;;;16.60;99.90;;;;;;5063588;28;20271;-87
2022/09/23 13:25:57;;;;;;;2.35;1.60;;;16.50;99.90;;;;;;5078152;28;20240;-87
2022/09/23 13:28:58;;;;;;;2.88;1.65;;;16.30;99.90;;;;;;5077432;28;20306;-87
2022/09/23 13:31:47;;;;;;;4.03;1.90;;;16.30;99.90;;;;;;5062232;28;20705;-85
2022/09/23 13:34:37;;;;;;;3.47;1.92;;;16.30;99.90;;;;;;5073319;28;20702;-85
2022/09/23 13:37:31;;;;;;;1.45;1.20;;;16.40;99.90;;;;;;5075678;28;20793;-85
2022/09/23 13:40:23;;;;;;;2.50;1.50;;;16.40;99.90;;;;;;5079561;28;20242;-85
2022/09/23 13:43:20;;;;;;;2.13;1.35;;;16.30;99.90;;;;;;5083641;28;20223;-90
2022/09/23 13:46:12;;;;;;;1.92;1.33;;;16.30;99.90;;;;;;5076147;28;20227;-88
2022/09/23 13:49:01;;;;;;;3.33;1.98;;;16.20;99.90;;;;;;5071994;28;20227;-89
2022/09/23 13:51:50;;;;;;;4.75;1.48;;;16.30;99.90;;;;;;5086521;28;20220;-85
2022/09/23 13:54:48;;;;;;;2.33;1.50;;;16.30;99.90;;;;;;5079645;28;20234;-85
2022/09/23 13:57:38;;;;;;;5.00;2.03;;;16.20;99.90;;;;;;5077312;28;20226;-85
2022/09/23 14:00:31;;;;;;;2.78;1.58;;;16.10;99.90;;;;;;5063823;28;20310;-86
2022/09/23 14:03:30;;;;;;;2.97;1.45;;;16.20;99.90;;;;;;5079223;28;21058;-83
2022/09/23 14:06:26;;;;;;;4.15;1.60;;;16.20;99.90;;;;;;5074905;28;20222;-83
2022/09/23 14:09:16;;;;;;;2.85;1.58;;;16.20;99.90;;;;;;5080622;28;20372;-87
2022/09/23 14:12:08;;;;;;;1.63;1.30;;;16.10;99.90;;;;;;5079706;28;20223;-89
2022/09/23 14:14:58;;;;;;;1.88;1.50;;;16.20;99.90;;;;;;5090897;28;20698;-88
2022/09/23 14:17:47;;;;;;;3.55;1.80;;;16.10;99.90;;;;;;5081164;28;20212;-87
2022/09/23 14:20:46;;;;;;;3.10;1.50;;;16.10;99.90;;;;;;5068098;28;20231;-85
2022/09/23 14:23:34;;;;;;;3.15;1.55;;;16.10;99.90;;;;;;5079165;28;20215;-83
2022/09/23 14:26:24;;;;;;;4.32;1.90;;;16.10;99.90;;;;;;5061591;28;20916;-84
2022/09/23 14:29:15;;;;;;;2.92;1.65;;;16.10;99.90;;;;;;5063322;28;20331;-84
2022/09/23 14:32:11;;;;;;;3.55;2.00;;;16.10;99.90;;;;;;5080078;28;20371;-83
2022/09/23 14:35:16;;;;;;;2.78;1.80;;;16.20;99.90;;;;;;5076272;28;20246;-84
2022/09/23 14:41:25;;;;;;;3.58;1.88;;;16.10;99.90;;;;;;5071440;28;20311;-86
2022/09/23 14:44:21;;;;;;;2.72;1.42;;;16.20;99.90;;;;;;5066621;28;20302;-84
2022/09/23 14:47:14;;;;;;;2.88;1.55;;;16.10;99.90;;;;;;5077354;28;20321;-84
2022/09/23 14:53:30;;;;;;;3.10;1.67;;;15.90;99.90;;;;;;5064607;28;20376;-86
2022/09/23 14:56:21;;;;;;;1.95;1.50;;;16.00;99.90;;;;;;5078166;28;20330;-87
2022/09/23 14:59:26;;;;;;;2.85;1.70;;;15.90;99.90;;;;;;5082836;28;20224;-85
2022/09/23 15:02:36;;;;;;;3.78;1.55;;;15.90;99.90;;;;;;5076830;28;20231;-85
2022/09/23 15:05:37;;;;;;;1.80;1.40;;;15.90;99.90;;;;;;5072020;28;20777;-85
2022/09/23 15:08:27;;;;;;;3.22;1.60;;;15.90;99.90;;;;;;5063499;28;20708;-86
2022/09/23 15:11:16;;;;;;;3.05;1.52;;;15.90;99.90;;;;;;5075074;28;21245;-85
2022/09/23 15:14:05;;;;;;;3.40;1.70;;;15.90;99.90;;;;;;5078010;28;20268;-87
2022/09/23 15:17:24;;;;;;;3.88;1.83;;;15.90;99.90;;;;;;5068610;28;20837;-86
2022/09/23 15:20:24;;;;;;;4.50;1.73;;;15.80;99.90;;;;;;5079710;28;20599;-85